Latest Weather Observations for Giles*

IDW60801

Issued at 10:05 pm WST Saturday 30 August 2014 (issued every 30 minutes, with the page automatically refreshed every 10 minutes)

About weather observations | Map of weather stations | Latest weather observations for WA | Other Formats
Station Details ID: 013017 Name: GILES METEOROLOGICAL OFFICE Lat: -25.03 Lon: 128.30 Height: 598.0 m
Data from the previous 72 hours. | See also: Recent months at Giles*

* Giles observations are collected in the South Australia time zone, which includes daylight saving in the summer period. Therefore, Rain since 9am value is with respect to South Australia local time.

Date/Time
WST
Temp
°C
App
Temp
°C
Dew
Point
Rel
Hum
%
Delta-T
°C
Wind Press
QNH
hPa
Press
MSL
hPa
Rain
since 9 am
mm
Dir
 
Spd
km/h
Gust
km/h
Spd
kts
Gust
kts
30/10:00pm 18.0 13.2 -10.6 13 10.3 N 9 9 5 5 1019.7 - 0.0
30/09:30pm 20.3 17.3 -9.7 12 11.3 CALM 0 0 0 0 1019.7 - 0.0
30/09:00pm 18.7 16.1 -4.8 20 9.6 CALM 0 0 0 0 1020.0 - 0.0
30/08:30pm 17.9 15.0 -8.4 16 9.9 CALM 0 0 0 0 1020.0 - 0.0
30/08:00pm 17.4 13.3 -8.7 16 9.7 N 6 9 3 5 1020.0 - 0.0
30/07:30pm 21.7 17.1 -8.4 12 11.8 NE 9 11 5 6 1019.9 1018.6 0.0
30/07:00pm 22.2 18.1 -6.9 13 11.8 NE 7 9 4 5 1019.7 - 0.0
30/06:30pm 22.1 18.7 -9.6 11 12.2 SE 2 9 1 5 1019.4 - 0.0
30/06:00pm 22.6 18.5 -9.2 11 12.4 E 6 6 3 3 1019.2 - 0.0
30/05:30pm 23.7 20.9 -6.9 12 12.6 CALM 0 0 0 0 1018.8 - 0.0
30/05:00pm 25.1 20.7 -10.5 8 13.9 N 7 9 4 5 1018.6 - 0.0
30/04:30pm 26.1 21.6 -11.0 8 14.5 NW 7 13 4 7 1018.5 1017.2 0.0
30/04:00pm 26.1 21.9 -7.5 10 14.0 NNE 7 13 4 7 1018.5 - 0.0
30/03:30pm 26.5 22.1 -10.9 8 14.7 N 7 13 4 7 1018.4 - 0.0
30/03:00pm 26.5 21.2 -11.7 7 14.8 NE 11 15 6 8 1018.4 - 0.0
30/02:30pm 26.5 20.3 -15.4 5 15.2 N 15 20 8 11 1018.4 - 0.0
30/02:00pm 25.9 21.3 -12.7 7 14.6 N 7 17 4 9 1018.6 - 0.0
30/01:30pm 26.8 21.4 -13.8 6 15.2 NW 11 20 6 11 1018.8 1017.6 0.0
30/01:00pm 26.2 20.4 -15.0 6 15.0 NNW 13 20 7 11 1019.3 - 0.0
30/12:30pm 26.0 20.4 -11.5 7 14.5 N 13 30 7 16 1019.6 - 0.0
30/12:00pm 25.6 19.5 -12.5 7 14.4 N 15 26 8 14 1020.2 - 0.0
30/11:30am 25.8 19.4 -12.4 7 14.5 N 17 26 9 14 1020.6 - 0.0
30/11:00am 24.8 17.9 -11.1 8 13.8 N 20 30 11 16 1021.2 - 0.0
30/10:30am 25.0 18.3 -10.3 9 13.8 N 19 24 10 13 1021.8 1020.6 0.0
30/10:00am 24.7 17.9 -11.5 8 13.8 N 19 32 10 17 1022.0 - 0.0
30/09:30am 24.8 17.9 -11.1 8 13.8 N 20 28 11 15 1022.3 - 0.0
30/09:00am 23.5 16.2 -11.0 9 13.1 N 22 28 12 15 1022.2 - 0.0
30/08:30am 22.8 16.0 -9.3 11 12.5 NNE 20 28 11 15 1022.1 - 0.0
30/08:00am 21.9 17.2 -9.1 12 12.0 N 9 13 5 7 1022.3 - 0.0
30/07:30am 18.5 15.9 -4.8 20 9.5 CALM 0 0 0 0 1022.2 1021.0 0.0
30/07:00am 15.3 12.5 -3.4 27 7.6 E 2 7 1 4 1022.0 - 0.0
30/06:30am 13.4 9.7 -4.7 28 7.0 E 6 9 3 5 1021.8 - 0.0
30/06:00am 12.9 9.4 -6.6 25 7.2 SE 4 11 2 6 1021.8 - 0.0
30/05:30am 12.3 9.5 -7.0 25 7.0 CALM 0 0 0 0 1021.5 - 0.0
30/05:00am 11.7 8.1 -7.8 25 6.9 SSW 4 6 2 3 1021.4 - 0.0
30/04:30am 13.6 8.6 -8.0 21 7.8 NW 11 11 6 6 1021.2 1019.9 0.0
30/04:00am 13.1 8.6 -6.7 24 7.3 NNW 9 11 5 6 1021.1 - 0.0
30/03:30am 13.5 8.8 -8.8 20 7.9 NW 9 11 5 6 1021.1 - 0.0
30/03:00am 9.9 6.8 -6.3 31 5.8 E 2 11 1 6 1021.1 - 0.0
30/02:30am 12.4 7.0 -8.2 23 7.3 E 13 17 7 9 1021.1 - 0.0
30/02:00am 12.0 6.6 -8.1 24 7.1 E 13 15 7 8 1021.3 - 0.0
30/01:30am 11.7 8.7 -8.8 23 7.1 CALM 0 0 0 0 1021.4 1020.1 0.0
30/01:00am 13.7 10.8 -7.8 22 7.8 CALM 0 0 0 0 1021.4 - 0.0
30/12:30am 15.3 11.1 -8.1 19 8.6 E 7 7 4 4 1021.4 - 0.0
30/12:00am 15.0 10.3 -8.9 18 8.6 E 9 9 5 5 1021.5 - 0.0
 
Date/Time
WST
Temp
°C
App
Temp
°C
Dew
Point
Rel
Hum
%
Delta-T
°C
Wind Press
QNH
hPa
Press
MSL
hPa
Rain
since 9 am
mm
Dir
 
Spd
km/h
Gust
km/h
Spd
kts
Gust
kts
29/11:30pm 14.9 10.8 -8.6 19 8.5 E 6 7 3 4 1021.4 - 0.0
29/11:00pm 15.8 11.7 -8.5 18 8.9 ESE 6 7 3 4 1021.4 - 0.0
29/10:30pm 16.4 12.6 -5.9 21 8.7 N 6 7 3 4 1021.5 1020.2 0.0
29/10:00pm 17.6 13.6 -7.1 18 9.5 N 6 7 3 4 1021.5 - 0.0
29/09:30pm 19.0 14.9 -8.2 15 10.4 N 6 7 3 4 1021.7 - 0.0
29/09:00pm 18.1 15.3 -6.8 18 9.7 CALM 0 0 0 0 1021.8 - 0.0
29/08:30pm 16.7 12.8 -6.2 20 8.9 NNE 6 7 3 4 1021.8 - 0.0
29/08:00pm 18.4 14.5 -5.1 20 9.5 N 7 7 4 4 1021.6 - 0.0
29/07:30pm 17.8 13.8 -7.6 17 9.7 N 6 7 3 4 1021.5 1020.2 0.0
29/07:00pm 19.8 15.6 -8.2 14 10.8 N 7 7 4 4 1021.2 - 0.0
29/06:30pm 19.8 15.7 -7.1 15 10.6 N 7 9 4 5 1021.0 - 0.0
29/06:00pm 20.4 15.0 -8.2 14 11.1 N 13 15 7 8 1020.5 - 0.0
29/05:30pm 21.9 17.7 -7.2 13 11.7 N 7 9 4 5 1020.3 - 0.0
29/05:00pm 23.8 19.1 -9.1 10 13.0 N 9 13 5 7 1020.1 - 0.0
29/04:30pm 24.8 19.7 -8.9 10 13.5 NNE 11 17 6 9 1019.9 1018.6 0.0
29/04:00pm 25.4 19.8 -11.7 8 14.2 NNE 13 19 7 10 1019.8 - 0.0
29/03:30pm 25.5 20.6 -12.0 7 14.3 W 9 15 5 8 1019.7 - 0.0
29/03:00pm 25.0 19.8 -10.2 9 13.8 NE 11 15 6 8 1019.8 - 0.0
29/02:30pm 25.5 21.2 -9.1 9 13.9 ENE 7 15 4 8 1020.0 - 0.0
29/02:00pm 25.5 20.8 -9.8 9 14.0 E 9 22 5 12 1020.3 - 0.0
29/01:30pm 25.2 19.8 -8.2 10 13.6 E 13 22 7 12 1020.4 1019.2 0.0
29/01:00pm 25.1 19.5 -10.6 8 13.9 E 13 24 7 13 1020.7 - 0.0
29/12:30pm 25.0 18.7 -9.6 9 13.7 N 17 24 9 13 1021.2 - 0.0
29/12:00pm 24.5 18.6 -9.4 10 13.4 NNE 15 28 8 15 1021.9 - 0.0
29/11:30am 24.2 18.0 -8.5 11 13.1 NNE 17 30 9 16 1022.4 - 0.0
29/11:00am 23.8 17.1 -10.6 9 13.2 NNE 19 33 10 18 1023.1 - 0.0
29/10:30am 23.8 16.2 -9.9 10 13.1 NNE 24 33 13 18 1023.5 1022.3 0.0
29/10:00am 23.0 15.5 -8.7 11 12.5 NNE 24 33 13 18 1024.0 - 0.0
29/09:30am 22.0 13.8 -7.6 13 11.8 NNE 28 37 15 20 1024.6 - 0.0
29/09:00am 21.3 13.1 -8.0 13 11.6 NNE 28 41 15 22 1024.7 - 0.0
29/08:30am 21.7 14.7 -7.4 13 11.7 NE 22 32 12 17 1024.8 - 0.0
29/08:00am 20.3 13.2 -8.0 14 11.0 NE 22 28 12 15 1024.5 - 0.0
29/07:30am 19.7 12.3 -7.5 15 10.6 NE 24 39 13 21 1024.1 1022.9 0.0
29/07:00am 18.5 12.0 -8.0 16 10.1 NNE 19 30 10 16 1024.0 - 0.0
29/06:30am 17.4 11.0 -6.6 19 9.3 ENE 19 30 10 16 1023.9 - 0.0
29/06:00am 16.9 9.4 -9.0 16 9.5 ENE 24 33 13 18 1023.5 - 0.0
29/05:30am 16.8 8.9 -8.7 16 9.4 ENE 26 37 14 20 1023.0 - 0.0
29/05:00am 16.1 9.6 -8.3 18 9.0 ENE 19 24 10 13 1022.8 - 0.0
29/04:30am 15.5 10.1 -8.2 19 8.7 E 13 19 7 10 1022.6 1021.4 0.0
29/04:00am 15.7 9.9 -8.8 17 8.9 ENE 15 19 8 10 1022.2 - 0.2
29/03:30am 15.4 9.6 -9.0 18 8.8 E 15 19 8 10 1022.1 - 0.2
29/03:00am 15.5 9.2 -10.6 15 9.1 E 17 24 9 13 1022.0 - 0.2
29/02:30am 16.0 9.0 -11.7 14 9.5 E 20 26 11 14 1022.0 - 0.2
29/02:00am 16.4 9.0 -11.8 13 9.7 E 22 30 12 16 1022.1 - 0.2
29/01:30am 16.1 9.1 -11.4 14 9.5 E 20 28 11 15 1022.3 1021.1 0.2
29/01:00am 16.2 9.4 -11.8 13 9.6 E 19 22 10 12 1022.4 - 0.2
29/12:30am 14.2 8.3 -9.3 19 8.3 E 15 17 8 9 1022.9 - 0.2
29/12:00am 11.7 7.2 -6.8 27 6.7 E 9 11 5 6 1022.9 - 0.2
 
Date/Time
WST
Temp
°C
App
Temp
°C
Dew
Point
Rel
Hum
%
Delta-T
°C
Wind Press
QNH
hPa
Press
MSL
hPa
Rain
since 9 am
mm
Dir
 
Spd
km/h
Gust
km/h
Spd
kts
Gust
kts
28/11:30pm 12.3 8.2 -6.5 26 6.9 SE 7 7 4 4 1023.1 - 0.2
28/11:00pm 14.1 9.6 -6.9 22 7.8 E 9 11 5 6 1022.9 - 0.2
28/10:30pm 15.3 9.9 -8.2 19 8.6 E 13 17 7 9 1023.0 1021.7 0.2
28/10:00pm 17.1 10.9 -8.4 16 9.5 E 17 20 9 11 1023.1 - 0.2
28/09:30pm 17.7 11.9 -8.5 16 9.8 E 15 19 8 10 1023.0 - 0.2
28/09:00pm 18.1 12.4 -7.9 16 9.9 E 15 19 8 10 1023.0 - 0.2
28/08:30pm 18.4 12.3 -8.2 15 10.1 E 17 19 9 10 1022.9 - 0.2
28/08:00pm 18.7 12.5 -8.6 15 10.3 E 17 20 9 11 1022.9 - 0.2
28/07:30pm 17.5 12.1 -8.5 16 9.7 E 13 15 7 8 1022.5 1021.3 0.2
28/07:00pm 18.1 12.7 -8.5 15 10.0 E 13 15 7 8 1022.2 - 0.2
28/06:30pm 20.3 14.5 -9.2 13 11.2 ENE 15 17 8 9 1021.7 - 0.2
28/06:00pm 20.8 15.4 -8.2 13 11.3 ENE 13 15 7 8 1021.4 - 0.2
28/05:30pm 21.4 16.8 -8.2 13 11.6 E 9 13 5 7 1021.1 - 0.2
28/05:00pm 23.6 18.2 -8.5 11 12.8 ENE 13 17 7 9 1020.8 - 0.2
28/04:30pm 24.5 19.4 -10.0 9 13.5 E 11 17 6 9 1020.7 1019.5 0.2
28/04:00pm 24.7 19.1 -11.5 8 13.8 E 13 20 7 11 1020.6 - 0.2
28/03:30pm 25.2 19.7 -10.2 9 13.9 ENE 13 22 7 12 1020.5 - 0.2
28/03:00pm 25.3 18.9 -11.3 8 14.1 E 17 24 9 13 1020.8 - 0.2
28/02:30pm 25.6 20.3 -11.7 7 14.3 ENE 11 28 6 15 1020.8 - 0.2
28/02:00pm 25.3 19.7 -10.6 8 14.0 E 13 24 7 13 1021.3 - 0.2
28/01:30pm 25.1 20.0 -9.9 9 13.8 E 11 19 6 10 1021.5 1020.2 0.2
28/01:00pm 25.3 19.6 -13.1 7 14.3 E 13 22 7 12 1021.9 - 0.2
28/12:30pm 25.4 19.4 -11.8 8 14.2 NNE 15 28 8 15 1022.5 - 0.2
28/12:00pm 24.6 17.7 -13.8 7 14.1 NNE 19 30 10 16 1023.0 - 0.2
28/11:30am 23.9 17.4 -13.5 7 13.7 N 17 24 9 13 1023.5 - 0.2
28/11:00am 23.5 17.1 -11.1 9 13.2 ENE 17 20 9 11 1024.0 - 0.2
28/10:30am 22.8 15.5 -11.6 9 12.8 NNE 22 37 12 20 1024.5 1023.2 0.0
28/10:00am 23.0 15.9 -13.2 8 13.2 NNE 20 30 11 16 1024.8 - 0.0
28/09:30am 21.9 13.7 -12.9 9 12.6 NNE 26 37 14 20 1025.1 - 0.0
28/09:00am 21.3 14.4 -10.6 11 12.0 NE 20 32 11 17 1025.1 - 0.0
28/08:30am 21.0 14.4 -9.6 12 11.7 NE 19 28 10 15 1025.1 - 0.0
28/08:00am 20.2 13.5 -10.3 12 11.4 NNE 19 30 10 16 1025.0 - 0.0
28/07:30am 19.2 12.5 -10.2 13 10.8 NE 19 30 10 16 1024.7 1023.5 0.0
28/07:00am 18.3 12.7 -10.5 13 10.4 NE 13 24 7 13 1024.2 - 0.0
28/06:30am 17.4 11.1 -10.0 14 9.9 ENE 17 26 9 14 1023.9 - 0.0
28/06:00am 16.4 9.7 -10.5 15 9.5 ENE 19 30 10 16 1023.3 - 0.0
28/05:30am 16.2 9.4 -11.8 13 9.6 ENE 19 28 10 15 1022.8 - 0.0
28/05:00am 15.1 9.5 -11.1 15 9.0 E 13 20 7 11 1022.5 - 0.0
28/04:30am 12.9 8.1 -10.4 18 7.9 E 9 9 5 5 1022.3 1021.1 0.0
28/04:00am 13.8 9.0 -10.4 17 8.3 E 9 13 5 7 1022.1 - 0.0
28/03:30am 14.5 9.3 -10.9 16 8.7 E 11 15 6 8 1021.8 - 0.0
28/03:00am 16.5 10.8 -12.2 13 9.8 ENE 13 20 7 11 1021.5 - 0.0
28/02:30am 16.4 10.7 -11.8 13 9.7 ENE 13 20 7 11 1021.5 - 0.0
28/02:00am 15.1 10.4 -8.7 18 8.6 ENE 9 11 5 6 1021.6 - 0.0
28/01:30am 12.2 8.0 -9.9 20 7.5 ESE 6 7 3 4 1021.7 1020.5 0.0
28/01:00am 13.0 8.4 -8.4 22 7.6 E 9 15 5 8 1021.9 - 0.0
28/12:30am 17.7 11.3 -11.7 12 10.3 ENE 17 22 9 12 1022.1 - 0.0
28/12:00am 16.4 10.7 -11.8 13 9.7 E 13 17 7 9 1022.4 - 0.0
 
Date/Time
WST
Temp
°C
App
Temp
°C
Dew
Point
Rel
Hum
%
Delta-T
°C
Wind Press
QNH
hPa
Press
MSL
hPa
Rain
since 9 am
mm
Dir
 
Spd
km/h
Gust
km/h
Spd
kts
Gust
kts
27/11:30pm 15.7 10.1 -11.3 14 9.3 E 13 17 7 9 1022.6 - 0.0
27/11:00pm 17.6 11.6 -10.7 13 10.1 ENE 15 17 8 9 1022.6 - 0.0
27/10:30pm 17.3 11.8 -9.7 15 9.8 ENE 13 17 7 9 1022.8 1021.5 0.0
27/10:00pm 17.1 12.0 -9.6 15 9.7 E 11 15 6 8 1022.9 - 0.0
27/09:30pm 18.1 13.1 -8.5 15 10.0 ENE 11 13 6 7 1022.9 - 0.0
27/09:00pm 18.9 13.5 -8.0 15 10.3 ENE 13 15 7 8 1023.0 - 0.0

Other Formats:

Comma delimited format used in spreadsheet applications
http://www.bom.gov.au/fwo/IDW60801/IDW60801.94461.axf

JavaScript Object Notation format (JSON) in row-major order
http://www.bom.gov.au/fwo/IDW60801/IDW60801.94461.json